sensor_id;sensor_type;location;lat;lon;timestamp;temperature;humidity
71879;DHT22;59755;43.834;4.364;2023-12-20T00:02:09;8.40;57.20
71879;DHT22;59755;43.834;4.364;2023-12-20T00:04:35;8.50;56.60
71879;DHT22;59755;43.834;4.364;2023-12-20T00:07:00;8.50;56.80
71879;DHT22;59755;43.834;4.364;2023-12-20T00:09:26;8.50;56.80
71879;DHT22;59755;43.834;4.364;2023-12-20T00:11:52;8.50;56.40
71879;DHT22;59755;43.834;4.364;2023-12-20T00:14:18;8.30;56.70
71879;DHT22;59755;43.834;4.364;2023-12-20T00:16:43;8.30;56.90
71879;DHT22;59755;43.834;4.364;2023-12-20T00:19:09;8.30;57.30
71879;DHT22;59755;43.834;4.364;2023-12-20T00:21:34;8.40;57.50
71879;DHT22;59755;43.834;4.364;2023-12-20T00:24:00;8.40;57.10
71879;DHT22;59755;43.834;4.364;2023-12-20T00:26:25;8.30;57.20
71879;DHT22;59755;43.834;4.364;2023-12-20T00:28:53;8.30;57.80
71879;DHT22;59755;43.834;4.364;2023-12-20T00:31:19;8.30;57.40
71879;DHT22;59755;43.834;4.364;2023-12-20T00:33:44;8.10;57.70
71879;DHT22;59755;43.834;4.364;2023-12-20T00:36:11;8.20;57.90
71879;DHT22;59755;43.834;4.364;2023-12-20T00:38:37;8.10;57.60
71879;DHT22;59755;43.834;4.364;2023-12-20T00:41:02;8.00;58.00
71879;DHT22;59755;43.834;4.364;2023-12-20T00:43:28;8.10;58.30
71879;DHT22;59755;43.834;4.364;2023-12-20T00:45:53;8.00;58.00
71879;DHT22;59755;43.834;4.364;2023-12-20T00:48:20;8.00;58.50
71879;DHT22;59755;43.834;4.364;2023-12-20T00:50:47;8.00;58.20
71879;DHT22;59755;43.834;4.364;2023-12-20T00:53:13;7.90;58.30
71879;DHT22;59755;43.834;4.364;2023-12-20T00:55:38;7.80;58.70
71879;DHT22;59755;43.834;4.364;2023-12-20T00:58:04;7.70;58.90
71879;DHT22;59755;43.834;4.364;2023-12-20T01:00:30;7.80;58.70
71879;DHT22;59755;43.834;4.364;2023-12-20T01:02:55;7.80;58.70
71879;DHT22;59755;43.834;4.364;2023-12-20T01:05:21;7.70;58.90
71879;DHT22;59755;43.834;4.364;2023-12-20T01:07:48;7.60;58.90
71879;DHT22;59755;43.834;4.364;2023-12-20T01:10:14;7.70;59.00
71879;DHT22;59755;43.834;4.364;2023-12-20T01:12:40;7.80;58.40
71879;DHT22;59755;43.834;4.364;2023-12-20T01:15:05;7.80;58.30
71879;DHT22;59755;43.834;4.364;2023-12-20T01:17:31;7.80;57.90
71879;DHT22;59755;43.834;4.364;2023-12-20T01:19:56;7.80;58.10
71879;DHT22;59755;43.834;4.364;2023-12-20T01:22:22;7.70;58.20
71879;DHT22;59755;43.834;4.364;2023-12-20T01:24:48;7.70;58.20
71879;DHT22;59755;43.834;4.364;2023-12-20T01:27:13;7.70;58.40
71879;DHT22;59755;43.834;4.364;2023-12-20T01:29:39;7.80;58.20
71879;DHT22;59755;43.834;4.364;2023-12-20T01:32:05;7.70;58.40
71879;DHT22;59755;43.834;4.364;2023-12-20T01:34:30;7.70;58.40
71879;DHT22;59755;43.834;4.364;2023-12-20T01:36:56;7.80;58.50
71879;DHT22;59755;43.834;4.364;2023-12-20T01:39:21;7.80;57.80
71879;DHT22;59755;43.834;4.364;2023-12-20T01:41:47;7.80;57.80
71879;DHT22;59755;43.834;4.364;2023-12-20T01:44:13;7.80;57.90
71879;DHT22;59755;43.834;4.364;2023-12-20T01:46:38;7.90;57.80
71879;DHT22;59755;43.834;4.364;2023-12-20T01:49:04;7.90;57.80
71879;DHT22;59755;43.834;4.364;2023-12-20T01:51:30;7.90;57.90
71879;DHT22;59755;43.834;4.364;2023-12-20T01:53:56;8.00;57.80
71879;DHT22;59755;43.834;4.364;2023-12-20T01:56:23;7.90;57.90
71879;DHT22;59755;43.834;4.364;2023-12-20T01:58:48;7.80;58.20
71879;DHT22;59755;43.834;4.364;2023-12-20T02:01:14;7.80;58.00
71879;DHT22;59755;43.834;4.364;2023-12-20T02:03:40;7.90;58.10
71879;DHT22;59755;43.834;4.364;2023-12-20T02:06:07;7.90;58.50
71879;DHT22;59755;43.834;4.364;2023-12-20T02:08:32;8.00;58.00
71879;DHT22;59755;43.834;4.364;2023-12-20T02:11:01;8.00;57.90
71879;DHT22;59755;43.834;4.364;2023-12-20T02:13:26;8.10;58.50
71879;DHT22;59755;43.834;4.364;2023-12-20T02:15:52;8.10;58.70
71879;DHT22;59755;43.834;4.364;2023-12-20T02:18:18;8.10;58.40
71879;DHT22;59755;43.834;4.364;2023-12-20T02:20:43;8.20;58.10
71879;DHT22;59755;43.834;4.364;2023-12-20T02:23:09;8.20;58.10
71879;DHT22;59755;43.834;4.364;2023-12-20T02:25:35;8.20;58.20
71879;DHT22;59755;43.834;4.364;2023-12-20T02:28:01;8.20;58.10
71879;DHT22;59755;43.834;4.364;2023-12-20T02:30:29;8.20;58.40
71879;DHT22;59755;43.834;4.364;2023-12-20T02:32:55;8.20;58.50
71879;DHT22;59755;43.834;4.364;2023-12-20T02:35:20;8.20;58.10
71879;DHT22;59755;43.834;4.364;2023-12-20T02:37:46;8.20;58.20
71879;DHT22;59755;43.834;4.364;2023-12-20T02:40:12;8.20;57.70
71879;DHT22;59755;43.834;4.364;2023-12-20T02:42:38;8.20;57.60
71879;DHT22;59755;43.834;4.364;2023-12-20T02:45:04;8.10;58.00
71879;DHT22;59755;43.834;4.364;2023-12-20T02:47:29;8.10;58.00
71879;DHT22;59755;43.834;4.364;2023-12-20T02:49:55;8.10;57.80
71879;DHT22;59755;43.834;4.364;2023-12-20T02:52:22;8.00;57.90
71879;DHT22;59755;43.834;4.364;2023-12-20T02:54:47;8.10;58.40
71879;DHT22;59755;43.834;4.364;2023-12-20T02:57:13;8.20;58.40
71879;DHT22;59755;43.834;4.364;2023-12-20T02:59:38;8.20;58.10
71879;DHT22;59755;43.834;4.364;2023-12-20T03:02:04;8.20;57.80
71879;DHT22;59755;43.834;4.364;2023-12-20T03:04:29;8.20;57.40
71879;DHT22;59755;43.834;4.364;2023-12-20T03:06:55;8.20;57.40
71879;DHT22;59755;43.834;4.364;2023-12-20T03:09:20;8.20;57.70
71879;DHT22;59755;43.834;4.364;2023-12-20T03:11:46;8.40;57.30
71879;DHT22;59755;43.834;4.364;2023-12-20T03:14:11;8.40;57.10
71879;DHT22;59755;43.834;4.364;2023-12-20T03:16:37;8.50;57.10
71879;DHT22;59755;43.834;4.364;2023-12-20T03:19:02;8.50;57.00
71879;DHT22;59755;43.834;4.364;2023-12-20T03:21:28;8.60;56.80
71879;DHT22;59755;43.834;4.364;2023-12-20T03:23:54;8.60;56.80
71879;DHT22;59755;43.834;4.364;2023-12-20T03:26:20;8.60;56.80
71879;DHT22;59755;43.834;4.364;2023-12-20T03:28:45;8.70;56.90
71879;DHT22;59755;43.834;4.364;2023-12-20T03:31:11;8.70;57.10
71879;DHT22;59755;43.834;4.364;2023-12-20T03:33:36;8.60;57.40
71879;DHT22;59755;43.834;4.364;2023-12-20T03:36:02;8.60;57.60
71879;DHT22;59755;43.834;4.364;2023-12-20T03:38:27;8.60;57.70
71879;DHT22;59755;43.834;4.364;2023-12-20T03:40:53;8.60;57.70
71879;DHT22;59755;43.834;4.364;2023-12-20T03:43:18;8.50;57.50
71879;DHT22;59755;43.834;4.364;2023-12-20T03:45:44;8.50;57.30
71879;DHT22;59755;43.834;4.364;2023-12-20T03:48:10;8.50;57.20
71879;DHT22;59755;43.834;4.364;2023-12-20T03:50:35;8.50;57.10
71879;DHT22;59755;43.834;4.364;2023-12-20T03:53:01;8.40;57.40
71879;DHT22;59755;43.834;4.364;2023-12-20T03:55:27;8.40;58.10
71879;DHT22;59755;43.834;4.364;2023-12-20T03:57:52;8.50;57.60
71879;DHT22;59755;43.834;4.364;2023-12-20T04:00:18;8.50;57.80
71879;DHT22;59755;43.834;4.364;2023-12-20T04:02:43;8.40;58.30
71879;DHT22;59755;43.834;4.364;2023-12-20T04:05:09;8.40;58.40
71879;DHT22;59755;43.834;4.364;2023-12-20T04:07:35;8.40;58.40
71879;DHT22;59755;43.834;4.364;2023-12-20T04:10:01;8.40;58.60
71879;DHT22;59755;43.834;4.364;2023-12-20T04:12:28;8.50;58.90
71879;DHT22;59755;43.834;4.364;2023-12-20T04:14:53;8.50;58.40
71879;DHT22;59755;43.834;4.364;2023-12-20T04:17:19;8.50;58.60
71879;DHT22;59755;43.834;4.364;2023-12-20T04:19:45;8.40;58.90
71879;DHT22;59755;43.834;4.364;2023-12-20T04:22:10;8.40;59.10
71879;DHT22;59755;43.834;4.364;2023-12-20T04:24:36;8.40;59.20
71879;DHT22;59755;43.834;4.364;2023-12-20T04:27:02;8.40;59.30
71879;DHT22;59755;43.834;4.364;2023-12-20T04:29:27;8.40;59.30
71879;DHT22;59755;43.834;4.364;2023-12-20T04:31:53;8.30;59.40
71879;DHT22;59755;43.834;4.364;2023-12-20T04:34:18;8.40;59.50
71879;DHT22;59755;43.834;4.364;2023-12-20T04:36:44;8.30;59.40
71879;DHT22;59755;43.834;4.364;2023-12-20T04:39:11;8.40;59.70
71879;DHT22;59755;43.834;4.364;2023-12-20T04:41:37;8.40;59.60
71879;DHT22;59755;43.834;4.364;2023-12-20T04:44:02;8.30;59.80
71879;DHT22;59755;43.834;4.364;2023-12-20T04:46:28;8.30;59.70
71879;DHT22;59755;43.834;4.364;2023-12-20T04:48:53;8.30;59.80
71879;DHT22;59755;43.834;4.364;2023-12-20T04:51:19;8.20;60.20
71879;DHT22;59755;43.834;4.364;2023-12-20T04:53:44;8.20;60.60
71879;DHT22;59755;43.834;4.364;2023-12-20T04:56:10;8.10;60.50
71879;DHT22;59755;43.834;4.364;2023-12-20T04:58:35;8.00;61.20
71879;DHT22;59755;43.834;4.364;2023-12-20T05:01:01;8.00;61.00
71879;DHT22;59755;43.834;4.364;2023-12-20T05:03:27;8.00;61.20
71879;DHT22;59755;43.834;4.364;2023-12-20T05:05:52;8.00;61.20
71879;DHT22;59755;43.834;4.364;2023-12-20T05:08:18;7.90;61.90
71879;DHT22;59755;43.834;4.364;2023-12-20T05:10:43;7.80;62.60
71879;DHT22;59755;43.834;4.364;2023-12-20T05:13:09;7.80;63.10
71879;DHT22;59755;43.834;4.364;2023-12-20T05:15:35;7.80;63.40
71879;DHT22;59755;43.834;4.364;2023-12-20T05:18:00;8.00;64.90
71879;DHT22;59755;43.834;4.364;2023-12-20T05:20:28;8.30;65.90
71879;DHT22;59755;43.834;4.364;2023-12-20T05:22:53;8.40;66.00
71879;DHT22;59755;43.834;4.364;2023-12-20T05:25:19;8.60;66.00
71879;DHT22;59755;43.834;4.364;2023-12-20T05:27:44;8.80;65.50
71879;DHT22;59755;43.834;4.364;2023-12-20T05:30:10;8.90;65.20
71879;DHT22;59755;43.834;4.364;2023-12-20T05:32:36;9.00;64.90
71879;DHT22;59755;43.834;4.364;2023-12-20T05:35:02;8.90;65.00
71879;DHT22;59755;43.834;4.364;2023-12-20T05:37:28;8.90;65.10
71879;DHT22;59755;43.834;4.364;2023-12-20T05:39:54;8.90;65.10
71879;DHT22;59755;43.834;4.364;2023-12-20T05:42:19;8.90;65.30
71879;DHT22;59755;43.834;4.364;2023-12-20T05:44:45;8.90;65.30
71879;DHT22;59755;43.834;4.364;2023-12-20T05:47:10;8.90;65.50
71879;DHT22;59755;43.834;4.364;2023-12-20T05:49:36;8.90;65.50
71879;DHT22;59755;43.834;4.364;2023-12-20T05:52:02;8.90;65.40
71879;DHT22;59755;43.834;4.364;2023-12-20T05:54:27;9.00;65.30
71879;DHT22;59755;43.834;4.364;2023-12-20T05:56:53;9.00;65.10
71879;DHT22;59755;43.834;4.364;2023-12-20T05:59:19;9.00;65.20
71879;DHT22;59755;43.834;4.364;2023-12-20T06:01:44;8.90;65.20
71879;DHT22;59755;43.834;4.364;2023-12-20T06:04:10;8.90;64.90
71879;DHT22;59755;43.834;4.364;2023-12-20T06:06:40;8.80;64.90
71879;DHT22;59755;43.834;4.364;2023-12-20T06:09:06;8.80;65.00
71879;DHT22;59755;43.834;4.364;2023-12-20T06:11:31;8.80;65.20
71879;DHT22;59755;43.834;4.364;2023-12-20T06:13:57;8.80;65.10
71879;DHT22;59755;43.834;4.364;2023-12-20T06:16:22;8.80;65.10
71879;DHT22;59755;43.834;4.364;2023-12-20T06:18:48;8.80;65.10
71879;DHT22;59755;43.834;4.364;2023-12-20T06:21:14;8.90;65.20
71879;DHT22;59755;43.834;4.364;2023-12-20T06:23:39;8.90;65.30
71879;DHT22;59755;43.834;4.364;2023-12-20T06:26:05;8.80;65.10
71879;DHT22;59755;43.834;4.364;2023-12-20T06:28:31;8.80;65.40
71879;DHT22;59755;43.834;4.364;2023-12-20T06:30:56;8.80;65.70
71879;DHT22;59755;43.834;4.364;2023-12-20T06:33:22;8.80;66.10
71879;DHT22;59755;43.834;4.364;2023-12-20T06:35:48;8.90;66.10
71879;DHT22;59755;43.834;4.364;2023-12-20T06:38:14;8.90;66.90
71879;DHT22;59755;43.834;4.364;2023-12-20T06:40:39;8.90;67.60
71879;DHT22;59755;43.834;4.364;2023-12-20T06:43:05;9.00;68.00
71879;DHT22;59755;43.834;4.364;2023-12-20T06:45:32;9.00;68.20
71879;DHT22;59755;43.834;4.364;2023-12-20T06:47:57;9.10;68.50
71879;DHT22;59755;43.834;4.364;2023-12-20T06:50:23;9.10;68.50
71879;DHT22;59755;43.834;4.364;2023-12-20T06:52:49;9.20;68.50
71879;DHT22;59755;43.834;4.364;2023-12-20T06:55:15;9.20;68.50
71879;DHT22;59755;43.834;4.364;2023-12-20T06:57:40;9.20;68.80
71879;DHT22;59755;43.834;4.364;2023-12-20T07:00:06;9.10;68.80
71879;DHT22;59755;43.834;4.364;2023-12-20T07:02:33;9.10;69.20
71879;DHT22;59755;43.834;4.364;2023-12-20T07:04:59;9.10;69.80
71879;DHT22;59755;43.834;4.364;2023-12-20T07:07:25;9.10;70.10
71879;DHT22;59755;43.834;4.364;2023-12-20T07:09:51;9.10;70.90
71879;DHT22;59755;43.834;4.364;2023-12-20T07:12:17;9.10;71.30
71879;DHT22;59755;43.834;4.364;2023-12-20T07:14:45;9.20;71.60
71879;DHT22;59755;43.834;4.364;2023-12-20T07:17:10;9.20;71.80
71879;DHT22;59755;43.834;4.364;2023-12-20T07:19:41;9.20;72.10
71879;DHT22;59755;43.834;4.364;2023-12-20T07:22:07;9.20;72.20
71879;DHT22;59755;43.834;4.364;2023-12-20T07:24:33;9.30;72.00
71879;DHT22;59755;43.834;4.364;2023-12-20T07:26:59;9.20;72.40
71879;DHT22;59755;43.834;4.364;2023-12-20T07:29:25;9.20;72.60
71879;DHT22;59755;43.834;4.364;2023-12-20T07:31:50;9.20;72.60
71879;DHT22;59755;43.834;4.364;2023-12-20T07:34:17;9.20;72.50
71879;DHT22;59755;43.834;4.364;2023-12-20T07:36:43;9.20;72.70
71879;DHT22;59755;43.834;4.364;2023-12-20T07:39:08;9.20;72.90
71879;DHT22;59755;43.834;4.364;2023-12-20T07:41:34;9.20;73.20
71879;DHT22;59755;43.834;4.364;2023-12-20T07:43:59;9.20;73.10
71879;DHT22;59755;43.834;4.364;2023-12-20T07:46:25;9.20;73.00
71879;DHT22;59755;43.834;4.364;2023-12-20T07:48:51;9.20;72.80
71879;DHT22;59755;43.834;4.364;2023-12-20T07:51:16;9.30;72.70
71879;DHT22;59755;43.834;4.364;2023-12-20T07:53:42;9.30;72.40
71879;DHT22;59755;43.834;4.364;2023-12-20T07:56:17;9.40;72.00
71879;DHT22;59755;43.834;4.364;2023-12-20T07:58:43;9.40;70.90
71879;DHT22;59755;43.834;4.364;2023-12-20T08:01:10;9.30;70.80
71879;DHT22;59755;43.834;4.364;2023-12-20T08:03:36;9.30;71.10
71879;DHT22;59755;43.834;4.364;2023-12-20T08:06:02;9.30;71.60
71879;DHT22;59755;43.834;4.364;2023-12-20T08:08:28;9.30;71.90
71879;DHT22;59755;43.834;4.364;2023-12-20T08:10:53;9.30;71.90
71879;DHT22;59755;43.834;4.364;2023-12-20T08:13:19;9.40;71.80
71879;DHT22;59755;43.834;4.364;2023-12-20T08:15:45;9.50;71.60
71879;DHT22;59755;43.834;4.364;2023-12-20T08:18:10;9.60;71.20
71879;DHT22;59755;43.834;4.364;2023-12-20T08:20:36;9.60;70.90
71879;DHT22;59755;43.834;4.364;2023-12-20T08:23:02;9.70;70.70
71879;DHT22;59755;43.834;4.364;2023-12-20T08:25:28;9.70;70.40
71879;DHT22;59755;43.834;4.364;2023-12-20T08:27:53;9.80;70.20
71879;DHT22;59755;43.834;4.364;2023-12-20T08:30:19;9.90;70.10
71879;DHT22;59755;43.834;4.364;2023-12-20T08:32:50;9.90;69.90
71879;DHT22;59755;43.834;4.364;2023-12-20T08:35:15;9.90;69.80
71879;DHT22;59755;43.834;4.364;2023-12-20T08:37:41;9.90;69.70
71879;DHT22;59755;43.834;4.364;2023-12-20T08:40:07;10.00;69.60
71879;DHT22;59755;43.834;4.364;2023-12-20T08:42:32;10.00;69.60
71879;DHT22;59755;43.834;4.364;2023-12-20T08:44:58;10.00;69.50
71879;DHT22;59755;43.834;4.364;2023-12-20T08:47:24;10.00;69.50
71879;DHT22;59755;43.834;4.364;2023-12-20T08:49:49;10.00;69.30
71879;DHT22;59755;43.834;4.364;2023-12-20T08:52:15;10.10;69.10
71879;DHT22;59755;43.834;4.364;2023-12-20T08:54:41;10.10;69.30
71879;DHT22;59755;43.834;4.364;2023-12-20T08:57:06;10.30;69.00
71879;DHT22;59755;43.834;4.364;2023-12-20T08:59:32;10.50;68.80
71879;DHT22;59755;43.834;4.364;2023-12-20T09:01:58;10.70;68.20
71879;DHT22;59755;43.834;4.364;2023-12-20T09:04:24;10.90;67.30
71879;DHT22;59755;43.834;4.364;2023-12-20T09:06:50;10.90;67.20
71879;DHT22;59755;43.834;4.364;2023-12-20T09:09:15;10.90;66.90
71879;DHT22;59755;43.834;4.364;2023-12-20T09:11:41;10.90;66.70
71879;DHT22;59755;43.834;4.364;2023-12-20T09:14:07;11.00;66.40
71879;DHT22;59755;43.834;4.364;2023-12-20T09:16:33;11.10;65.90
71879;DHT22;59755;43.834;4.364;2023-12-20T09:18:59;11.10;65.40
71879;DHT22;59755;43.834;4.364;2023-12-20T09:21:24;11.20;65.10
71879;DHT22;59755;43.834;4.364;2023-12-20T09:23:50;11.30;64.70
71879;DHT22;59755;43.834;4.364;2023-12-20T09:26:15;11.30;64.20
71879;DHT22;59755;43.834;4.364;2023-12-20T09:28:41;11.40;64.00
71879;DHT22;59755;43.834;4.364;2023-12-20T09:31:06;11.50;63.10
71879;DHT22;59755;43.834;4.364;2023-12-20T09:33:32;11.50;62.60
71879;DHT22;59755;43.834;4.364;2023-12-20T09:35:58;11.60;62.00
71879;DHT22;59755;43.834;4.364;2023-12-20T09:38:24;11.70;61.80
71879;DHT22;59755;43.834;4.364;2023-12-20T09:40:49;11.70;61.20
71879;DHT22;59755;43.834;4.364;2023-12-20T09:43:15;11.80;60.20
71879;DHT22;59755;43.834;4.364;2023-12-20T09:45:45;12.00;59.30
71879;DHT22;59755;43.834;4.364;2023-12-20T09:48:11;12.10;58.70
71879;DHT22;59755;43.834;4.364;2023-12-20T09:50:37;12.20;58.10
71879;DHT22;59755;43.834;4.364;2023-12-20T09:53:03;12.30;57.50
71879;DHT22;59755;43.834;4.364;2023-12-20T09:55:30;12.40;56.90
71879;DHT22;59755;43.834;4.364;2023-12-20T09:57:57;12.60;55.80
71879;DHT22;59755;43.834;4.364;2023-12-20T10:00:23;12.70;55.30
71879;DHT22;59755;43.834;4.364;2023-12-20T10:05:17;13.10;54.70
71879;DHT22;59755;43.834;4.364;2023-12-20T10:07:46;13.20;53.70
71879;DHT22;59755;43.834;4.364;2023-12-20T10:10:12;13.20;53.40
71879;DHT22;59755;43.834;4.364;2023-12-20T10:12:38;13.10;53.70
71879;DHT22;59755;43.834;4.364;2023-12-20T10:15:04;13.10;53.80
71879;DHT22;59755;43.834;4.364;2023-12-20T10:17:30;12.90;53.90
71879;DHT22;59755;43.834;4.364;2023-12-20T10:19:55;12.70;54.40
71879;DHT22;59755;43.834;4.364;2023-12-20T10:22:21;12.50;55.00
71879;DHT22;59755;43.834;4.364;2023-12-20T10:24:47;12.50;55.20
71879;DHT22;59755;43.834;4.364;2023-12-20T10:27:12;12.40;55.40
71879;DHT22;59755;43.834;4.364;2023-12-20T10:29:38;12.30;55.40
71879;DHT22;59755;43.834;4.364;2023-12-20T10:34:49;12.10;55.20
71879;DHT22;59755;43.834;4.364;2023-12-20T10:37:14;12.10;55.00
71879;DHT22;59755;43.834;4.364;2023-12-20T10:39:40;12.10;55.00
71879;DHT22;59755;43.834;4.364;2023-12-20T10:42:07;12.40;54.30
71879;DHT22;59755;43.834;4.364;2023-12-20T10:44:34;12.80;53.10
71879;DHT22;59755;43.834;4.364;2023-12-20T10:46:59;13.20;52.30
71879;DHT22;59755;43.834;4.364;2023-12-20T10:49:25;13.50;50.90
71879;DHT22;59755;43.834;4.364;2023-12-20T10:51:52;13.70;50.70
71879;DHT22;59755;43.834;4.364;2023-12-20T10:54:19;13.70;50.20
71879;DHT22;59755;43.834;4.364;2023-12-20T10:56:45;13.90;49.40
71879;DHT22;59755;43.834;4.364;2023-12-20T10:59:11;14.00;49.50
71879;DHT22;59755;43.834;4.364;2023-12-20T11:01:37;14.20;49.10
71879;DHT22;59755;43.834;4.364;2023-12-20T11:04:03;14.30;48.50
71879;DHT22;59755;43.834;4.364;2023-12-20T11:14:15;14.60;46.80
71879;DHT22;59755;43.834;4.364;2023-12-20T11:16:42;14.60;46.70
71879;DHT22;59755;43.834;4.364;2023-12-20T11:19:08;14.70;46.60
71879;DHT22;59755;43.834;4.364;2023-12-20T11:21:33;15.00;46.20
71879;DHT22;59755;43.834;4.364;2023-12-20T11:23:59;15.40;45.70
71879;DHT22;59755;43.834;4.364;2023-12-20T11:26:29;15.30;45.20
71879;DHT22;59755;43.834;4.364;2023-12-20T11:29:28;15.30;45.20
71879;DHT22;59755;43.834;4.364;2023-12-20T11:31:40;15.10;45.20
71879;DHT22;59755;43.834;4.364;2023-12-20T11:34:13;15.10;45.40
71879;DHT22;59755;43.834;4.364;2023-12-20T11:36:39;14.90;45.50
71879;DHT22;59755;43.834;4.364;2023-12-20T11:39:04;15.10;45.10
71879;DHT22;59755;43.834;4.364;2023-12-20T11:41:34;15.30;44.70
71879;DHT22;59755;43.834;4.364;2023-12-20T11:43:59;15.30;44.70
71879;DHT22;59755;43.834;4.364;2023-12-20T11:46:26;15.30;44.90
71879;DHT22;59755;43.834;4.364;2023-12-20T11:48:51;15.50;44.30
71879;DHT22;59755;43.834;4.364;2023-12-20T11:51:17;15.50;44.00
71879;DHT22;59755;43.834;4.364;2023-12-20T11:53:43;15.60;43.40
71879;DHT22;59755;43.834;4.364;2023-12-20T11:56:09;15.80;43.30
71879;DHT22;59755;43.834;4.364;2023-12-20T11:58:35;15.90;43.00
71879;DHT22;59755;43.834;4.364;2023-12-20T12:01:01;16.10;42.70
71879;DHT22;59755;43.834;4.364;2023-12-20T12:03:29;16.10;42.00
71879;DHT22;59755;43.834;4.364;2023-12-20T12:05:55;16.20;41.50
71879;DHT22;59755;43.834;4.364;2023-12-20T12:08:21;16.10;41.30
71879;DHT22;59755;43.834;4.364;2023-12-20T12:10:46;16.30;41.40
71879;DHT22;59755;43.834;4.364;2023-12-20T12:13:12;16.60;41.00
71879;DHT22;59755;43.834;4.364;2023-12-20T12:15:39;16.30;41.00
71879;DHT22;59755;43.834;4.364;2023-12-20T12:18:05;16.50;40.90
71879;DHT22;59755;43.834;4.364;2023-12-20T12:20:31;16.70;40.70
71879;DHT22;59755;43.834;4.364;2023-12-20T12:23:00;16.60;40.80
71879;DHT22;59755;43.834;4.364;2023-12-20T12:25:26;16.60;40.70
71879;DHT22;59755;43.834;4.364;2023-12-20T12:27:52;16.70;40.80
71879;DHT22;59755;43.834;4.364;2023-12-20T12:30:18;17.00;39.80
71879;DHT22;59755;43.834;4.364;2023-12-20T12:32:44;17.10;39.50
71879;DHT22;59755;43.834;4.364;2023-12-20T12:35:09;17.20;38.90
71879;DHT22;59755;43.834;4.364;2023-12-20T12:37:35;17.20;38.80
71879;DHT22;59755;43.834;4.364;2023-12-20T12:40:03;16.70;39.50
71879;DHT22;59755;43.834;4.364;2023-12-20T12:42:30;16.60;39.90
71879;DHT22;59755;43.834;4.364;2023-12-20T12:44:56;16.70;39.40
71879;DHT22;59755;43.834;4.364;2023-12-20T12:47:21;16.90;39.50
71879;DHT22;59755;43.834;4.364;2023-12-20T12:49:49;17.00;38.80
71879;DHT22;59755;43.834;4.364;2023-12-20T12:52:15;16.90;39.20
71879;DHT22;59755;43.834;4.364;2023-12-20T12:54:41;17.00;38.90
71879;DHT22;59755;43.834;4.364;2023-12-20T12:57:07;17.20;38.60
71879;DHT22;59755;43.834;4.364;2023-12-20T12:59:33;17.00;38.60
71879;DHT22;59755;43.834;4.364;2023-12-20T13:01:59;16.90;38.60
71879;DHT22;59755;43.834;4.364;2023-12-20T13:04:24;16.90;38.80
71879;DHT22;59755;43.834;4.364;2023-12-20T13:06:50;17.20;38.50
71879;DHT22;59755;43.834;4.364;2023-12-20T13:09:15;17.50;38.30
71879;DHT22;59755;43.834;4.364;2023-12-20T13:21:27;18.60;36.40
71879;DHT22;59755;43.834;4.364;2023-12-20T13:23:56;18.30;36.60
71879;DHT22;59755;43.834;4.364;2023-12-20T13:26:21;18.40;35.90
71879;DHT22;59755;43.834;4.364;2023-12-20T13:28:47;17.60;36.00
71879;DHT22;59755;43.834;4.364;2023-12-20T13:31:12;17.20;35.00
71879;DHT22;59755;43.834;4.364;2023-12-20T13:33:38;17.10;35.80
71879;DHT22;59755;43.834;4.364;2023-12-20T13:36:04;17.30;34.80
71879;DHT22;59755;43.834;4.364;2023-12-20T13:38:30;17.40;34.60
71879;DHT22;59755;43.834;4.364;2023-12-20T13:40:56;17.60;34.60
71879;DHT22;59755;43.834;4.364;2023-12-20T13:43:23;17.10;35.30
71879;DHT22;59755;43.834;4.364;2023-12-20T13:45:49;17.00;35.80
71879;DHT22;59755;43.834;4.364;2023-12-20T13:48:15;16.90;35.90
71879;DHT22;59755;43.834;4.364;2023-12-20T13:50:41;16.80;36.30
71879;DHT22;59755;43.834;4.364;2023-12-20T13:53:06;16.70;36.00
71879;DHT22;59755;43.834;4.364;2023-12-20T13:55:32;16.40;36.60
71879;DHT22;59755;43.834;4.364;2023-12-20T13:57:58;16.30;36.70
71879;DHT22;59755;43.834;4.364;2023-12-20T14:00:23;16.30;36.90
71879;DHT22;59755;43.834;4.364;2023-12-20T14:02:49;16.20;37.00
71879;DHT22;59755;43.834;4.364;2023-12-20T14:05:15;16.20;36.90
71879;DHT22;59755;43.834;4.364;2023-12-20T14:07:43;16.20;36.80
71879;DHT22;59755;43.834;4.364;2023-12-20T14:10:13;15.90;37.20
71879;DHT22;59755;43.834;4.364;2023-12-20T14:12:39;15.90;37.00
71879;DHT22;59755;43.834;4.364;2023-12-20T14:15:05;15.70;37.30
71879;DHT22;59755;43.834;4.364;2023-12-20T14:17:39;15.60;36.90
71879;DHT22;59755;43.834;4.364;2023-12-20T14:20:05;15.30;37.10
71879;DHT22;59755;43.834;4.364;2023-12-20T14:22:32;15.10;37.10
71879;DHT22;59755;43.834;4.364;2023-12-20T14:24:57;15.00;37.50
71879;DHT22;59755;43.834;4.364;2023-12-20T14:27:23;14.80;38.00
71879;DHT22;59755;43.834;4.364;2023-12-20T14:29:50;14.90;37.80
71879;DHT22;59755;43.834;4.364;2023-12-20T14:32:15;14.90;37.80
71879;DHT22;59755;43.834;4.364;2023-12-20T14:34:41;14.80;37.70
71879;DHT22;59755;43.834;4.364;2023-12-20T14:37:07;14.70;38.10
71879;DHT22;59755;43.834;4.364;2023-12-20T14:39:33;14.40;38.10
71879;DHT22;59755;43.834;4.364;2023-12-20T14:41:58;14.30;38.50
71879;DHT22;59755;43.834;4.364;2023-12-20T14:44:24;14.10;39.00
71879;DHT22;59755;43.834;4.364;2023-12-20T14:46:50;13.80;39.30
71879;DHT22;59755;43.834;4.364;2023-12-20T14:49:16;13.70;39.60
71879;DHT22;59755;43.834;4.364;2023-12-20T14:51:45;13.50;39.60
71879;DHT22;59755;43.834;4.364;2023-12-20T14:54:13;13.50;39.90
71879;DHT22;59755;43.834;4.364;2023-12-20T14:56:38;13.40;40.00
71879;DHT22;59755;43.834;4.364;2023-12-20T14:59:04;13.40;40.20
71879;DHT22;59755;43.834;4.364;2023-12-20T15:01:29;13.20;40.20
71879;DHT22;59755;43.834;4.364;2023-12-20T15:03:56;13.10;40.60
71879;DHT22;59755;43.834;4.364;2023-12-20T15:06:22;13.00;40.70
71879;DHT22;59755;43.834;4.364;2023-12-20T15:08:47;12.90;40.80
71879;DHT22;59755;43.834;4.364;2023-12-20T15:11:13;12.90;41.10
71879;DHT22;59755;43.834;4.364;2023-12-20T15:13:39;12.80;41.10
71879;DHT22;59755;43.834;4.364;2023-12-20T15:16:05;12.70;41.20
71879;DHT22;59755;43.834;4.364;2023-12-20T15:18:30;12.70;41.40
71879;DHT22;59755;43.834;4.364;2023-12-20T15:20:57;12.60;42.00
71879;DHT22;59755;43.834;4.364;2023-12-20T15:23:22;12.60;41.80
71879;DHT22;59755;43.834;4.364;2023-12-20T15:25:51;12.60;42.00
71879;DHT22;59755;43.834;4.364;2023-12-20T15:28:17;12.50;41.80
71879;DHT22;59755;43.834;4.364;2023-12-20T15:30:42;12.40;41.30
71879;DHT22;59755;43.834;4.364;2023-12-20T15:33:08;12.40;41.80
71879;DHT22;59755;43.834;4.364;2023-12-20T15:35:34;12.30;41.60
71879;DHT22;59755;43.834;4.364;2023-12-20T15:37:59;12.20;41.90
71879;DHT22;59755;43.834;4.364;2023-12-20T15:40:25;12.20;42.10
71879;DHT22;59755;43.834;4.364;2023-12-20T15:42:50;12.20;42.00
71879;DHT22;59755;43.834;4.364;2023-12-20T15:45:16;12.10;42.10
71879;DHT22;59755;43.834;4.364;2023-12-20T15:47:41;12.10;42.10
71879;DHT22;59755;43.834;4.364;2023-12-20T15:50:07;12.10;42.20
71879;DHT22;59755;43.834;4.364;2023-12-20T15:52:33;12.10;42.20
71879;DHT22;59755;43.834;4.364;2023-12-20T15:54:58;12.00;42.40